createdAt,value
2023-05-15T00:00:37.410Z,18.77
2023-05-15T00:03:04.675Z,18.02
2023-05-15T00:05:31.513Z,18.50
2023-05-15T00:07:58.362Z,18.83
2023-05-15T00:10:25.197Z,18.83
2023-05-15T00:12:51.773Z,18.60
2023-05-15T00:15:18.436Z,19.00
2023-05-15T00:17:45.118Z,19.20
2023-05-15T00:20:12.444Z,18.25
2023-05-15T00:22:39.028Z,19.08
2023-05-15T00:25:06.479Z,19.27
2023-05-15T00:27:33.430Z,19.60
2023-05-15T00:30:02.839Z,20.23
2023-05-15T00:32:29.464Z,19.92
2023-05-15T00:34:56.142Z,19.50
2023-05-15T00:37:23.435Z,20.35
2023-05-15T00:39:50.535Z,20.52
2023-05-15T00:42:18.343Z,20.58
2023-05-15T00:44:45.815Z,20.58
2023-05-15T00:47:13.786Z,20.45
2023-05-15T00:49:41.597Z,20.20
2023-05-15T00:52:08.689Z,19.70
2023-05-15T00:54:35.677Z,19.88
2023-05-15T00:57:05.681Z,20.42
2023-05-15T00:59:33.436Z,21.67
2023-05-15T01:02:00.327Z,20.75
2023-05-15T01:04:26.992Z,20.30
2023-05-15T01:06:54.230Z,20.70
2023-05-15T01:09:24.152Z,22.20
2023-05-15T01:11:53.803Z,23.05
2023-05-15T01:14:20.994Z,21.73
2023-05-15T01:16:48.039Z,22.95
2023-05-15T01:19:15.128Z,22.23
2023-05-15T01:22:07.795Z,23.63
2023-05-15T01:25:20.940Z,23.85
2023-05-15T01:27:52.685Z,24.02
2023-05-15T01:30:26.911Z,22.95
2023-05-15T01:33:22.972Z,23.75
2023-05-15T01:36:07.412Z,25.23
2023-05-15T01:38:40.069Z,24.13
2023-05-15T01:41:26.891Z,25.85
2023-05-15T01:44:00.825Z,25.08
2023-05-15T01:46:31.442Z,26.27
2023-05-15T01:49:01.707Z,25.75
2023-05-15T01:51:30.869Z,26.08
2023-05-15T01:53:59.496Z,25.08
2023-05-15T01:56:27.198Z,27.00
2023-05-15T01:58:56.055Z,27.25
2023-05-15T02:01:24.017Z,26.48
2023-05-15T02:03:51.791Z,27.40
2023-05-15T02:06:21.498Z,27.48
2023-05-15T02:08:49.753Z,26.77
2023-05-15T02:11:16.327Z,29.42
2023-05-15T02:13:46.344Z,25.83
2023-05-15T02:16:13.362Z,26.30
2023-05-15T02:18:41.558Z,30.48
2023-05-15T02:21:08.357Z,25.25
2023-05-15T02:23:35.742Z,28.30
2023-05-15T02:26:02.459Z,28.42
2023-05-15T02:28:38.239Z,30.50
2023-05-15T02:31:11.965Z,31.98
2023-05-15T02:36:20.035Z,31.55
2023-05-15T02:38:53.091Z,32.05
2023-05-15T02:41:21.930Z,31.52
2023-05-15T02:43:51.620Z,32.25
2023-05-15T02:46:21.223Z,31.88
2023-05-15T02:48:48.903Z,32.33
2023-05-15T02:51:15.938Z,34.13
2023-05-15T02:53:43.175Z,33.00
2023-05-15T02:56:09.952Z,33.33
2023-05-15T02:58:37.718Z,34.00
2023-05-15T03:01:04.701Z,36.35
2023-05-15T03:03:31.650Z,34.65
2023-05-15T03:05:58.368Z,35.65
2023-05-15T03:08:25.012Z,35.03
2023-05-15T03:10:52.450Z,35.10
2023-05-15T03:13:19.151Z,37.10
2023-05-15T03:15:45.881Z,32.97
2023-05-15T03:18:12.516Z,36.63
2023-05-15T03:20:39.303Z,35.08
2023-05-15T03:23:05.852Z,32.53
2023-05-15T03:25:32.670Z,34.55
2023-05-15T03:27:59.196Z,35.58
2023-05-15T03:30:25.826Z,36.00
2023-05-15T03:32:52.552Z,35.92
2023-05-15T03:35:19.519Z,36.88
2023-05-15T03:37:45.978Z,33.88
2023-05-15T03:40:13.618Z,35.97
2023-05-15T03:42:40.304Z,36.53
2023-05-15T03:45:07.997Z,36.13
2023-05-15T03:47:34.608Z,36.83
2023-05-15T03:50:01.187Z,35.40
2023-05-15T03:52:27.726Z,33.38
2023-05-15T03:54:54.521Z,34.95
2023-05-15T03:57:21.396Z,37.53
2023-05-15T03:59:48.287Z,36.42
2023-05-15T04:02:15.019Z,36.25
2023-05-15T04:04:42.027Z,31.95
2023-05-15T04:07:08.636Z,37.28
2023-05-15T04:09:35.312Z,36.75
2023-05-15T04:12:02.051Z,37.53
2023-05-15T04:14:28.735Z,37.88
2023-05-15T04:16:55.458Z,39.35
2023-05-15T04:19:22.218Z,40.35
2023-05-15T04:21:48.783Z,38.63
2023-05-15T04:24:15.460Z,34.78
2023-05-15T04:26:42.016Z,39.30
2023-05-15T04:29:09.413Z,39.05
2023-05-15T04:31:36.544Z,39.42
2023-05-15T04:34:04.373Z,39.75
2023-05-15T04:36:31.783Z,36.30
2023-05-15T04:38:58.538Z,38.80
2023-05-15T04:41:25.431Z,39.80
2023-05-15T04:43:52.682Z,38.67
2023-05-15T04:46:19.502Z,40.05
2023-05-15T04:48:46.473Z,40.78
2023-05-15T04:51:14.165Z,42.50
2023-05-15T04:53:40.798Z,41.40
2023-05-15T04:56:07.520Z,37.92
2023-05-15T04:58:34.167Z,39.33
2023-05-15T05:01:03.551Z,39.53
2023-05-15T05:03:30.589Z,41.08
2023-05-15T05:05:57.176Z,38.80
2023-05-15T05:08:24.326Z,37.05
2023-05-15T05:10:56.068Z,38.95
2023-05-15T05:13:22.890Z,37.58
2023-05-15T05:15:49.410Z,37.38
2023-05-15T05:18:16.204Z,38.00
2023-05-15T05:20:42.768Z,38.88
2023-05-15T05:23:09.397Z,34.80
2023-05-15T05:25:36.063Z,40.53
2023-05-15T05:28:03.074Z,39.00
2023-05-15T05:30:29.624Z,37.28
2023-05-15T05:32:56.614Z,39.80
2023-05-15T05:35:23.434Z,37.22
2023-05-15T05:37:50.198Z,31.75
2023-05-15T05:40:17.710Z,36.50
2023-05-15T05:42:44.538Z,35.72
2023-05-15T05:45:11.396Z,37.42
2023-05-15T05:47:38.127Z,35.92
2023-05-15T05:50:05.703Z,36.00
2023-05-15T05:52:33.090Z,35.47
2023-05-15T05:54:59.734Z,34.92
2023-05-15T05:57:26.845Z,30.33
2023-05-15T05:59:53.673Z,29.70
2023-05-15T06:02:20.645Z,25.65
2023-05-15T06:04:47.210Z,28.48
2023-05-15T06:07:14.493Z,27.95
2023-05-15T06:09:41.621Z,25.98
2023-05-15T06:12:08.504Z,24.98
2023-05-15T06:14:36.088Z,27.88
2023-05-15T06:17:03.332Z,29.98
2023-05-15T06:19:30.318Z,26.63
2023-05-15T06:21:57.247Z,26.48
2023-05-15T06:24:24.062Z,25.23
2023-05-15T06:26:52.340Z,26.52
2023-05-15T06:29:19.372Z,27.00
2023-05-15T06:31:46.253Z,29.15
2023-05-15T06:34:12.871Z,29.60
2023-05-15T06:36:39.826Z,29.88
2023-05-15T06:39:06.548Z,29.60
2023-05-15T06:41:33.169Z,30.08
2023-05-15T06:43:59.766Z,32.08
2023-05-15T06:46:26.538Z,30.33
2023-05-15T06:48:53.259Z,28.48
2023-05-15T06:51:19.935Z,28.92
2023-05-15T06:53:46.710Z,27.52
2023-05-15T06:56:13.303Z,28.83
2023-05-15T06:58:39.868Z,26.83
2023-05-15T07:01:08.750Z,26.90
2023-05-15T07:03:35.418Z,27.90
2023-05-15T07:06:02.263Z,28.45
2023-05-15T07:08:28.883Z,28.10
2023-05-15T07:10:55.518Z,27.45
2023-05-15T07:13:23.478Z,27.27
2023-05-15T07:15:50.386Z,24.70
2023-05-15T07:18:18.341Z,26.80
2023-05-15T07:20:45.340Z,27.65
2023-05-15T07:23:12.354Z,27.25
2023-05-15T07:25:39.006Z,24.95
2023-05-15T07:28:05.676Z,25.48
2023-05-15T07:30:32.285Z,25.70
2023-05-15T07:32:58.811Z,25.50
2023-05-15T07:35:26.616Z,25.15
2023-05-15T07:37:53.444Z,25.55
2023-05-15T07:40:20.299Z,26.20
2023-05-15T07:42:47.070Z,26.55
2023-05-15T07:45:13.970Z,25.73
2023-05-15T07:47:48.495Z,25.75
2023-05-15T07:50:15.857Z,25.42
2023-05-15T07:52:43.089Z,26.20
2023-05-15T07:55:11.019Z,27.02
2023-05-15T07:57:37.589Z,25.42
2023-05-15T08:00:10.185Z,27.55
2023-05-15T08:02:41.074Z,24.75
2023-05-15T08:05:08.465Z,25.48
2023-05-15T08:07:35.635Z,25.25
2023-05-15T08:10:06.780Z,25.02
2023-05-15T08:12:33.654Z,24.83
2023-05-15T08:15:00.205Z,24.05
2023-05-15T08:17:26.897Z,22.95
2023-05-15T08:19:53.546Z,24.48
2023-05-15T08:22:23.153Z,24.42
2023-05-15T08:24:49.824Z,24.63
2023-05-15T08:27:16.393Z,23.10
2023-05-15T08:29:43.278Z,23.23
2023-05-15T08:32:10.571Z,22.90
2023-05-15T08:34:38.228Z,22.95
2023-05-15T08:37:06.392Z,23.48
2023-05-15T08:39:33.144Z,21.77
2023-05-15T08:42:18.999Z,21.08
2023-05-15T08:44:46.006Z,20.27
2023-05-15T08:47:15.005Z,20.67
2023-05-15T08:50:23.250Z,21.42
2023-05-15T08:52:51.495Z,19.55
2023-05-15T08:55:18.163Z,20.05
2023-05-15T08:57:45.383Z,21.52
2023-05-15T09:00:14.589Z,22.83
2023-05-15T09:02:42.757Z,24.33
2023-05-15T09:05:10.110Z,22.80
2023-05-15T09:07:40.042Z,24.42
2023-05-15T09:10:07.579Z,23.92
2023-05-15T09:12:34.783Z,23.83
2023-05-15T09:15:11.918Z,22.42
2023-05-15T09:17:39.916Z,23.40
2023-05-15T09:20:08.257Z,21.00
2023-05-15T09:22:36.295Z,21.52
2023-05-15T09:25:04.306Z,21.10
2023-05-15T09:27:40.908Z,20.80
2023-05-15T09:30:10.998Z,18.88
2023-05-15T09:32:38.342Z,20.52
2023-05-15T09:35:27.062Z,19.65
2023-05-15T09:38:01.913Z,21.08
2023-05-15T09:40:30.461Z,21.15
2023-05-15T09:42:57.921Z,19.73
2023-05-15T09:45:26.950Z,19.10
2023-05-15T09:47:53.997Z,17.48
2023-05-15T09:50:23.229Z,17.60
2023-05-15T09:52:51.785Z,19.45
2023-05-15T09:55:23.159Z,19.38
2023-05-15T09:58:16.089Z,19.27
2023-05-15T10:00:47.801Z,18.98
2023-05-15T10:03:16.844Z,19.67
2023-05-15T10:05:44.403Z,21.17
2023-05-15T10:08:11.682Z,19.52
2023-05-15T10:10:38.846Z,19.27
2023-05-15T10:13:08.307Z,20.88
2023-05-15T10:15:35.601Z,21.92
2023-05-15T10:18:05.001Z,24.23
2023-05-15T10:20:35.354Z,22.98
2023-05-15T10:23:05.139Z,23.77
2023-05-15T10:25:50.586Z,20.88
2023-05-15T10:28:18.960Z,24.95
2023-05-15T10:30:46.831Z,25.15
2023-05-15T10:33:13.731Z,26.15
2023-05-15T10:35:40.519Z,26.55
2023-05-15T10:38:07.393Z,28.30
2023-05-15T10:40:38.814Z,28.92
2023-05-15T10:43:06.192Z,29.60
2023-05-15T10:45:33.455Z,30.80
2023-05-15T10:48:01.749Z,30.25
2023-05-15T10:50:28.577Z,30.27
2023-05-15T10:52:56.051Z,27.92
2023-05-15T10:55:23.265Z,30.60
2023-05-15T10:57:50.289Z,29.02
2023-05-15T11:00:23.005Z,29.52
2023-05-15T11:02:53.754Z,31.48
2023-05-15T11:05:20.795Z,31.75
2023-05-15T11:08:15.594Z,32.58
2023-05-15T11:10:42.446Z,31.05
2023-05-15T11:13:09.220Z,27.55
2023-05-15T11:15:48.551Z,32.70
2023-05-15T11:18:15.714Z,31.20
2023-05-15T11:21:02.605Z,31.85
2023-05-15T11:23:29.302Z,31.10
2023-05-15T11:25:57.496Z,29.65
2023-05-15T11:28:31.495Z,30.55
2023-05-15T11:31:06.623Z,31.40
2023-05-15T11:33:33.422Z,32.58
2023-05-15T11:36:01.194Z,30.83
2023-05-15T11:38:28.334Z,31.90
2023-05-15T11:40:57.016Z,33.00
2023-05-15T11:43:28.423Z,31.13
2023-05-15T11:46:09.396Z,31.35
2023-05-15T11:48:41.444Z,29.80
2023-05-15T11:51:21.955Z,32.88
2023-05-15T11:53:54.371Z,30.25
2023-05-15T11:56:28.081Z,30.45
2023-05-15T11:58:57.133Z,30.52
2023-05-15T12:01:24.701Z,29.30
2023-05-15T12:03:52.197Z,26.65
2023-05-15T12:06:19.257Z,31.23
2023-05-15T12:08:52.487Z,28.30
2023-05-15T12:11:25.068Z,27.38
2023-05-15T12:13:54.056Z,25.20
2023-05-15T12:16:28.055Z,29.17
2023-05-15T12:18:59.154Z,27.00
2023-05-15T12:21:29.015Z,26.30
2023-05-15T12:26:26.654Z,26.85
2023-05-15T12:28:54.431Z,27.17
2023-05-15T12:31:21.632Z,26.27
2023-05-15T12:33:48.504Z,26.58
2023-05-15T12:36:16.643Z,22.88
2023-05-15T12:38:43.441Z,23.30
2023-05-15T12:41:13.262Z,23.00
2023-05-15T12:43:40.312Z,23.70
2023-05-15T12:46:07.983Z,24.75
2023-05-15T12:48:36.143Z,22.77
2023-05-15T12:51:07.954Z,22.17
2023-05-15T12:53:35.358Z,20.58
2023-05-15T12:56:02.549Z,21.25
2023-05-15T12:58:29.916Z,21.48
2023-05-15T13:00:57.065Z,20.42
2023-05-15T13:03:25.380Z,19.75
2023-05-15T13:05:52.722Z,19.25
2023-05-15T13:08:19.460Z,17.77
2023-05-15T13:10:47.790Z,18.15
2023-05-15T13:13:15.168Z,17.63
2023-05-15T13:15:45.465Z,18.25
2023-05-15T13:18:14.437Z,15.63
2023-05-15T13:20:46.332Z,16.83
2023-05-15T13:23:17.862Z,16.52
2023-05-15T13:25:46.845Z,17.23
2023-05-15T13:28:14.183Z,15.32
2023-05-15T13:30:41.913Z,14.02
2023-05-15T13:33:09.693Z,11.68
2023-05-15T13:35:37.799Z,11.63
2023-05-15T13:38:04.745Z,10.50
2023-05-15T13:40:37.771Z,9.15
2023-05-15T13:43:06.464Z,7.82
2023-05-15T13:45:33.345Z,7.40
2023-05-15T13:48:00.073Z,7.85
2023-05-15T13:50:27.289Z,6.20
2023-05-15T13:52:57.021Z,6.57
2023-05-15T13:55:25.590Z,6.22
2023-05-15T13:57:53.706Z,6.43
2023-05-15T14:00:20.875Z,6.20
2023-05-15T14:02:47.856Z,5.90
2023-05-15T14:05:15.770Z,5.53
2023-05-15T14:07:42.836Z,5.25
2023-05-15T14:10:10.441Z,5.45
2023-05-15T14:12:38.096Z,5.13
2023-05-15T14:15:05.155Z,4.78
2023-05-15T14:17:31.922Z,4.82
2023-05-15T14:19:58.581Z,5.30
2023-05-15T14:22:25.405Z,5.47
2023-05-15T14:24:53.157Z,5.10
2023-05-15T14:27:20.365Z,4.68
2023-05-15T14:29:49.052Z,5.15
2023-05-15T14:32:16.781Z,4.70
2023-05-15T14:34:43.748Z,6.60
2023-05-15T14:37:10.697Z,4.30
2023-05-15T14:39:37.307Z,4.50
2023-05-15T14:42:04.176Z,4.22
2023-05-15T14:44:30.753Z,3.85
2023-05-15T14:47:09.113Z,3.85
2023-05-15T14:49:37.679Z,4.28
2023-05-15T14:52:10.040Z,3.88
2023-05-15T14:54:37.853Z,3.42
2023-05-15T14:57:06.548Z,3.35
2023-05-15T14:59:33.386Z,3.53
2023-05-15T15:02:00.364Z,3.60
2023-05-15T15:04:29.130Z,3.95
2023-05-15T15:06:57.153Z,3.67
2023-05-15T15:09:25.499Z,3.45
2023-05-15T15:11:53.712Z,3.65
2023-05-15T15:14:20.871Z,4.30
2023-05-15T15:16:47.695Z,7.07
2023-05-15T15:19:16.221Z,3.85
2023-05-15T15:21:45.088Z,3.20
2023-05-15T15:24:12.023Z,3.60
2023-05-15T15:26:39.892Z,3.17
2023-05-15T15:29:06.747Z,3.25
2023-05-15T15:31:33.706Z,3.08
2023-05-15T15:34:01.386Z,3.70
2023-05-15T15:36:29.716Z,2.47
2023-05-15T15:38:56.436Z,3.80
2023-05-15T15:41:23.621Z,2.83
2023-05-15T15:43:50.537Z,3.20
2023-05-15T15:46:17.451Z,2.80
2023-05-15T15:48:44.851Z,2.97
2023-05-15T15:51:11.786Z,2.90
2023-05-15T15:53:38.826Z,3.22
2023-05-15T15:56:07.423Z,2.80
2023-05-15T15:58:33.965Z,3.15
2023-05-15T16:01:00.917Z,3.78
2023-05-15T16:03:27.860Z,3.60
2023-05-15T16:05:54.553Z,3.70
2023-05-15T16:08:21.205Z,4.28
2023-05-15T16:10:48.135Z,3.83
2023-05-15T16:13:14.607Z,3.63
2023-05-15T16:15:41.344Z,2.70
2023-05-15T16:18:08.446Z,3.30
2023-05-15T16:20:35.462Z,3.08
2023-05-15T16:23:02.329Z,3.38
2023-05-15T16:25:29.014Z,2.80
2023-05-15T16:27:55.663Z,2.83
2023-05-15T16:30:23.413Z,2.75
2023-05-15T16:32:53.545Z,3.20
2023-05-15T16:35:22.182Z,3.20
2023-05-15T16:37:49.184Z,3.63
2023-05-15T16:40:16.058Z,3.15
2023-05-15T16:42:43.068Z,3.33
2023-05-15T16:45:10.427Z,3.63
2023-05-15T16:47:39.315Z,2.75
2023-05-15T16:50:07.053Z,3.13
2023-05-15T16:52:33.674Z,3.28
2023-05-15T16:55:00.262Z,3.25
2023-05-15T16:57:26.981Z,3.13
2023-05-15T16:59:53.522Z,3.22
2023-05-15T17:02:20.362Z,3.58
2023-05-15T17:04:47.064Z,3.35
2023-05-15T17:07:13.653Z,3.42
2023-05-15T17:09:43.071Z,3.40
2023-05-15T17:12:10.125Z,4.15
2023-05-15T17:14:36.707Z,3.05
2023-05-15T17:17:04.019Z,2.78
2023-05-15T17:19:33.341Z,2.90
2023-05-15T17:22:00.289Z,3.70
2023-05-15T17:24:35.353Z,2.20
2023-05-15T17:27:09.412Z,2.22
2023-05-15T17:29:36.200Z,2.55
2023-05-15T17:32:03.162Z,2.45
2023-05-15T17:34:30.018Z,2.28
2023-05-15T17:36:56.797Z,2.70
2023-05-15T17:39:23.472Z,3.30
2023-05-15T17:41:50.510Z,2.10
2023-05-15T17:44:17.151Z,2.25
2023-05-15T17:46:44.030Z,2.40
2023-05-15T17:49:11.757Z,2.30
2023-05-15T17:51:38.379Z,2.75
2023-05-15T17:54:05.027Z,2.42
2023-05-15T17:56:31.723Z,2.70
2023-05-15T17:58:58.592Z,3.63
2023-05-15T18:01:25.507Z,2.60
2023-05-15T18:03:52.221Z,2.80
2023-05-15T18:06:18.896Z,4.68
2023-05-15T18:08:45.426Z,3.47
2023-05-15T18:11:21.588Z,4.28
2023-05-15T18:13:49.438Z,3.67
2023-05-15T18:16:17.852Z,5.80
2023-05-15T18:18:45.131Z,3.38
2023-05-15T18:21:11.882Z,2.80
2023-05-15T18:23:38.562Z,2.88
2023-05-15T18:26:05.218Z,4.15
2023-05-15T18:28:31.818Z,2.63
2023-05-15T18:30:58.920Z,11.07
2023-05-15T18:33:25.556Z,3.40
2023-05-15T18:35:53.154Z,3.25
2023-05-15T18:38:20.234Z,3.13
2023-05-15T18:40:47.382Z,3.30
2023-05-15T18:43:14.342Z,2.45
2023-05-15T18:45:41.389Z,2.85
2023-05-15T18:48:09.603Z,3.13
2023-05-15T18:50:36.339Z,2.90
2023-05-15T18:53:03.162Z,3.00
2023-05-15T18:55:30.203Z,2.92
2023-05-15T18:57:56.820Z,3.85
2023-05-15T19:00:37.251Z,2.42
2023-05-15T19:03:05.747Z,3.38
2023-05-15T19:05:34.143Z,3.03
2023-05-15T19:08:01.458Z,2.63
2023-05-15T19:10:29.644Z,3.33
2023-05-15T19:12:57.108Z,5.60
2023-05-15T19:15:26.450Z,2.88
2023-05-15T19:17:53.541Z,3.08
2023-05-15T19:20:20.899Z,2.83
2023-05-15T19:22:47.584Z,3.40
2023-05-15T19:25:14.289Z,2.53
2023-05-15T19:27:41.234Z,3.22
2023-05-15T19:30:09.444Z,2.42
2023-05-15T19:32:36.412Z,2.78
2023-05-15T19:35:03.662Z,2.40
2023-05-15T19:37:30.449Z,2.75
2023-05-15T19:39:57.098Z,2.53
2023-05-15T19:42:23.738Z,3.92
2023-05-15T19:44:50.441Z,2.90
2023-05-15T19:47:17.129Z,2.88
2023-05-15T19:49:43.706Z,2.67
2023-05-15T19:52:10.285Z,2.80
2023-05-15T19:54:36.843Z,2.72
2023-05-15T19:57:03.689Z,3.10
2023-05-15T19:59:30.524Z,2.95
2023-05-15T20:01:57.472Z,2.50
2023-05-15T20:04:24.187Z,2.83
2023-05-15T20:06:50.814Z,2.20
2023-05-15T20:09:17.558Z,2.60
2023-05-15T20:11:45.088Z,2.88
2023-05-15T20:14:14.506Z,2.47
2023-05-15T20:16:41.339Z,2.40
2023-05-15T20:19:08.099Z,2.45
2023-05-15T20:21:34.737Z,3.00
2023-05-15T20:24:01.680Z,2.22
2023-05-15T20:26:28.359Z,2.90
2023-05-15T20:28:54.964Z,3.20
2023-05-15T20:31:21.864Z,2.25
2023-05-15T20:33:48.554Z,2.53
2023-05-15T20:36:16.793Z,2.58
2023-05-15T20:38:44.851Z,3.22
2023-05-15T20:41:13.682Z,3.50
2023-05-15T20:43:40.682Z,3.10
2023-05-15T20:46:09.172Z,4.35
2023-05-15T20:48:36.320Z,3.08
2023-05-15T20:51:03.434Z,2.35
2023-05-15T20:53:30.050Z,7.15
2023-05-15T20:55:56.652Z,2.90
2023-05-15T20:58:23.188Z,2.65
2023-05-15T21:00:49.980Z,2.70
2023-05-15T21:03:16.672Z,2.28
2023-05-15T21:05:45.079Z,2.63
2023-05-15T21:08:12.596Z,3.00
2023-05-15T21:10:39.884Z,2.95
2023-05-15T21:13:06.585Z,2.97
2023-05-15T21:15:33.581Z,2.83
2023-05-15T21:18:00.336Z,2.90
2023-05-15T21:20:27.457Z,3.28
2023-05-15T21:22:54.207Z,3.05
2023-05-15T21:25:20.885Z,2.47
2023-05-15T21:27:47.613Z,2.78
2023-05-15T21:30:14.545Z,2.90
2023-05-15T21:32:41.219Z,2.65
2023-05-15T21:35:08.230Z,2.60
2023-05-15T21:37:34.820Z,4.05
2023-05-15T21:40:01.807Z,2.97
2023-05-15T21:42:29.862Z,3.25
2023-05-15T21:44:56.591Z,3.20
2023-05-15T21:47:23.568Z,3.00
2023-05-15T21:49:51.237Z,3.85
2023-05-15T21:52:17.961Z,2.72
2023-05-15T21:54:45.728Z,2.97
2023-05-15T21:57:13.110Z,3.97
2023-05-15T21:59:39.918Z,4.47
2023-05-15T22:02:07.387Z,3.70
2023-05-15T22:04:34.332Z,3.30
2023-05-15T22:07:00.965Z,2.63
2023-05-15T22:09:27.631Z,3.00
2023-05-15T22:11:54.239Z,3.08
2023-05-15T22:14:20.815Z,3.45
2023-05-15T22:16:47.595Z,2.50
2023-05-15T22:19:28.896Z,2.80
2023-05-15T22:21:59.292Z,2.60
2023-05-15T22:24:29.230Z,2.95
2023-05-15T22:26:55.883Z,2.85
2023-05-15T22:29:22.484Z,2.40
2023-05-15T22:31:49.105Z,3.30
2023-05-15T22:34:15.680Z,3.10
2023-05-15T22:36:42.312Z,3.00
2023-05-15T22:39:08.960Z,2.97
2023-05-15T22:41:36.180Z,2.88
2023-05-15T22:44:02.889Z,2.58
2023-05-15T22:46:29.687Z,3.30
2023-05-15T22:48:59.076Z,2.72
2023-05-15T22:51:27.394Z,2.80
2023-05-15T22:53:54.107Z,3.80
2023-05-15T22:56:21.352Z,2.92
2023-05-15T22:58:48.383Z,2.90
2023-05-15T23:01:15.100Z,3.55
2023-05-15T23:03:41.708Z,3.38
2023-05-15T23:06:08.402Z,3.08
2023-05-15T23:08:35.996Z,2.63
2023-05-15T23:11:02.596Z,2.53
2023-05-15T23:13:29.180Z,2.78
2023-05-15T23:15:56.107Z,3.58
2023-05-15T23:18:22.721Z,3.33
2023-05-15T23:20:50.393Z,2.95
2023-05-15T23:23:17.145Z,2.75
2023-05-15T23:25:43.713Z,3.33
2023-05-15T23:28:10.218Z,2.83
2023-05-15T23:30:37.058Z,3.00
2023-05-15T23:33:03.895Z,3.20
2023-05-15T23:35:30.598Z,2.80
2023-05-15T23:37:57.267Z,2.95
2023-05-15T23:40:23.902Z,2.53
2023-05-15T23:42:50.868Z,2.92
2023-05-15T23:45:17.498Z,3.00
2023-05-15T23:47:44.105Z,3.10
2023-05-15T23:50:10.785Z,2.88
2023-05-15T23:52:37.442Z,2.47
2023-05-15T23:55:05.055Z,2.80
2023-05-15T23:57:31.609Z,2.50
2023-05-15T23:59:58.466Z,2.20
